Time;durP1;ratioP1;P1;durP2;ratioP2;P2;SDS_P1;SDS_P2;PMS_P1;PMS_P2;Temp;Humidity;BMP_temperature;BMP_pressure;BME280_temperature;BME280_humidity;BME280_pressure;Samples;Min_cycle;Max_cycle;Signal;HPM_P1;HPM_P2
2022/10/13 00:01:46;;;;;;;1.97;1.77;;;;;;;7.65;100.00;100807.47;5050990;28;20454;-58
2022/10/13 00:04:12;;;;;;;3.23;2.40;;;;;;;7.66;100.00;100806.56;5050883;28;20948;-57
2022/10/13 00:06:39;;;;;;;2.33;2.23;;;;;;;7.68;100.00;100799.53;5051065;28;20517;-57
2022/10/13 00:09:05;;;;;;;2.70;1.97;;;;;;;7.54;100.00;100802.28;5050631;28;20470;-57
2022/10/13 00:11:32;;;;;;;1.50;1.40;;;;;;;7.62;100.00;100805.72;5049870;28;20455;-57
2022/10/13 00:14:01;;;;;;;2.33;2.23;;;;;;;7.55;100.00;100804.03;5050544;28;20497;-57
2022/10/13 00:16:29;;;;;;;3.83;3.50;;;;;;;7.78;100.00;100805.59;5050783;28;20458;-57
2022/10/13 00:18:55;;;;;;;3.23;2.27;;;;;;;7.73;100.00;100816.22;5050059;28;20475;-58
2022/10/13 00:21:24;;;;;;;4.93;3.37;;;;;;;7.96;100.00;100810.72;5050665;28;20455;-57
2022/10/13 00:23:52;;;;;;;3.17;1.10;;;;;;;7.95;100.00;100808.97;5050500;28;21590;-57
2022/10/13 00:26:21;;;;;;;3.43;1.17;;;;;;;8.07;100.00;100816.78;5050850;28;20462;-57
2022/10/13 00:28:48;;;;;;;2.50;2.27;;;;;;;8.12;100.00;100811.47;5050505;28;20555;-57
2022/10/13 00:31:20;;;;;;;4.73;4.33;;;;;;;8.15;100.00;100811.41;5050649;28;20490;-57
2022/10/13 00:33:48;;;;;;;3.93;2.20;;;;;;;8.11;100.00;100812.34;5050429;28;20451;-57
2022/10/13 00:36:15;;;;;;;4.27;3.97;;;;;;;8.14;100.00;100810.53;5050348;28;20585;-57
2022/10/13 00:38:41;;;;;;;3.93;3.50;;;;;;;7.93;100.00;100805.44;5050580;28;20960;-57
2022/10/13 00:41:08;;;;;;;3.67;2.77;;;;;;;7.66;100.00;100796.88;5050343;28;20463;-57
2022/10/13 00:43:54;;;;;;;2.63;2.53;;;;;;;7.92;100.00;100799.28;5048942;28;20572;-57
2022/10/13 00:46:21;;;;;;;8.50;2.97;;;;;;;8.13;100.00;100789.38;5049040;28;20458;-57
2022/10/13 00:48:49;;;;;;;13.83;4.90;;;;;;;8.21;100.00;100788.38;5050075;28;20467;-57
2022/10/13 00:51:20;;;;;;;15.10;4.63;;;;;;;8.24;100.00;100790.16;5049930;28;20963;-58
2022/10/13 00:53:47;;;;;;;3.00;2.80;;;;;;;8.35;100.00;100788.25;5050226;28;20450;-57
2022/10/13 00:56:17;;;;;;;17.97;4.03;;;;;;;8.47;100.00;100797.84;5049869;28;20827;-57
2022/10/13 00:58:46;;;;;;;2.70;2.60;;;;;;;8.65;100.00;100799.41;5049805;28;20532;-57
2022/10/13 01:01:12;;;;;;;4.53;4.07;;;;;;;8.64;100.00;100805.63;5049761;28;20508;-57
2022/10/13 01:03:39;;;;;;;6.37;4.50;;;;;;;8.63;100.00;100798.53;5050204;28;20532;-57
2022/10/13 01:06:07;;;;;;;11.13;5.27;;;;;;;8.72;100.00;100807.25;5049902;28;20512;-57
2022/10/13 01:08:33;;;;;;;3.17;2.77;;;;;;;8.67;100.00;100802.91;5049967;28;20466;-57
2022/10/13 01:11:24;;;;;;;2.83;2.20;;;;;;;8.70;100.00;100809.06;5049667;28;20885;-57
2022/10/13 01:14:02;;;;;;;3.70;3.40;;;;;;;8.69;100.00;100806.41;5049375;28;20447;-57
2022/10/13 01:16:42;;;;;;;4.20;3.80;;;;;;;8.72;100.00;100807.25;5049763;28;20508;-57
2022/10/13 01:19:30;;;;;;;6.50;4.10;;;;;;;8.89;100.00;100807.03;5049594;28;20466;-57
2022/10/13 01:22:12;;;;;;;3.37;3.07;;;;;;;8.89;100.00;100804.38;5049925;28;20500;-57
2022/10/13 01:24:55;;;;;;;5.00;2.70;;;;;;;8.93;100.00;100807.88;5049891;28;20447;-58
2022/10/13 01:27:50;;;;;;;3.50;3.30;;;;;;;8.83;100.00;100801.81;5049559;28;20496;-57
2022/10/13 01:30:18;;;;;;;5.53;4.20;;;;;;;8.83;100.00;100800.03;5048748;28;20451;-57
2022/10/13 01:32:54;;;;;;;7.60;3.97;;;;;;;8.90;100.00;100791.09;5048809;28;20955;-57
2022/10/13 01:35:23;;;;;;;4.53;2.57;;;;;;;8.83;100.00;100794.75;5049422;28;20504;-57
2022/10/13 01:37:56;;;;;;;3.23;2.90;;;;;;;8.77;100.00;100792.19;5049487;28;20486;-57
2022/10/13 01:40:50;;;;;;;3.13;2.47;;;;;;;8.88;100.00;100798.19;5049374;28;20459;-57
2022/10/13 01:43:28;;;;;;;3.53;2.20;;;;;;;8.94;100.00;100793.72;5049073;28;20447;-57
2022/10/13 01:46:01;;;;;;;6.57;3.60;;;;;;;8.96;100.00;100795.44;5049349;28;20874;-57
2022/10/13 01:48:28;;;;;;;3.93;2.47;;;;;;;9.02;100.00;100792.69;5049108;28;20463;-58
2022/10/13 01:50:57;;;;;;;6.70;3.43;;;;;;;9.04;100.00;100796.19;5049042;28;20541;-58
2022/10/13 01:53:24;;;;;;;13.17;2.10;;;;;;;9.07;100.00;100795.31;5048818;28;20451;-57
2022/10/13 01:55:54;;;;;;;11.13;2.80;;;;;;;9.14;100.00;100784.56;5049208;28;20879;-57
2022/10/13 01:58:22;;;;;;;12.13;3.03;;;;;;;9.17;100.00;100786.31;5048949;28;20494;-57
2022/10/13 02:01:03;;;;;;;4.63;3.60;;;;;;;9.19;100.00;100784.53;5048939;28;20489;-57
2022/10/13 02:03:42;;;;;;;4.17;2.07;;;;;;;9.10;100.00;100780.22;5049020;28;20478;-57
2022/10/13 02:06:14;;;;;;;3.40;2.93;;;;;;;9.02;100.00;100775.91;5049174;28;20875;-57
2022/10/13 02:08:48;;;;;;;3.00;2.70;;;;;;;9.15;100.00;100773.06;5049728;28;20971;-57
2022/10/13 02:11:22;;;;;;;2.20;1.87;;;;;;;9.24;100.00;100768.53;5048994;28;20457;-57
2022/10/13 02:14:15;;;;;;;6.03;3.30;;;;;;;9.24;100.00;100760.56;5048608;28;20873;-57
2022/10/13 02:16:44;;;;;;;3.80;3.50;;;;;;;9.32;100.00;100759.56;5048994;28;20454;-57
2022/10/13 02:19:14;;;;;;;4.33;3.50;;;;;;;9.30;100.00;100763.13;5048622;28;20503;-58
2022/10/13 02:21:41;;;;;;;3.93;3.00;;;;;;;9.33;100.00;100760.44;5048956;28;20450;-57
2022/10/13 02:24:09;;;;;;;3.00;2.20;;;;;;;9.26;100.00;100745.50;5049139;28;20509;-57
2022/10/13 02:26:36;;;;;;;2.40;2.20;;;;;;;9.20;100.00;100743.84;5048587;28;20451;-57
2022/10/13 02:29:11;;;;;;;2.93;1.43;;;;;;;9.34;100.00;100738.31;5048578;28;20597;-57
2022/10/13 02:31:37;;;;;;;11.23;2.57;;;;;;;9.18;100.00;100741.22;5048587;28;20454;-57
2022/10/13 02:34:04;;;;;;;2.90;2.70;;;;;;;9.02;100.00;100741.44;5048741;28;20465;-57
2022/10/13 02:36:30;;;;;;;7.43;2.93;;;;;;;9.06;100.00;100745.84;5048632;28;20856;-57
2022/10/13 02:38:57;;;;;;;5.93;2.50;;;;;;;9.19;100.00;100752.69;5048501;28;20494;-57
2022/10/13 02:41:24;;;;;;;2.10;2.00;;;;;;;9.35;100.00;100748.03;5048608;28;20516;-58
2022/10/13 02:43:50;;;;;;;3.23;2.93;;;;;;;9.27;100.00;100756.09;5051466;28;20454;-57
2022/10/13 02:46:17;;;;;;;2.53;2.37;;;;;;;9.17;100.00;100744.75;5052513;28;20484;-57
2022/10/13 02:48:43;;;;;;;12.23;3.10;;;;;;;9.15;100.00;100749.19;5051396;28;20470;-57
2022/10/13 02:51:10;;;;;;;5.27;4.27;;;;;;;9.26;100.00;100743.72;5052150;28;20481;-57
2022/10/13 02:53:36;;;;;;;3.73;2.83;;;;;;;9.32;100.00;100741.00;5052395;28;20450;-57
2022/10/13 02:56:02;;;;;;;1.57;1.47;;;;;;;9.35;100.00;100738.28;5052478;28;20450;-57
2022/10/13 02:58:29;;;;;;;2.00;1.90;;;;;;;9.41;100.00;100747.91;5052145;28;21003;-58
2022/10/13 03:01:07;;;;;;;7.33;3.23;;;;;;;9.39;100.00;100739.09;5050943;28;20481;-57
2022/10/13 03:03:34;;;;;;;2.73;2.53;;;;;;;9.35;100.00;100732.09;5052087;28;20481;-58
2022/10/13 03:06:01;;;;;;;5.40;2.87;;;;;;;9.31;100.00;100733.91;5052139;28;20500;-57
2022/10/13 03:08:28;;;;;;;6.03;3.07;;;;;;;9.28;100.00;100723.34;5051903;28;20481;-57
2022/10/13 03:10:55;;;;;;;7.47;4.03;;;;;;;9.22;100.00;100718.16;5051894;28;20450;-57
2022/10/13 03:13:21;;;;;;;3.47;2.63;;;;;;;9.17;100.00;100734.13;5052005;28;20451;-57
2022/10/13 03:15:47;;;;;;;4.00;3.70;;;;;;;9.23;100.00;100727.00;5051857;28;20455;-57
2022/10/13 03:18:14;;;;;;;3.60;3.30;;;;;;;9.33;100.00;100723.31;5051876;28;20498;-58
2022/10/13 03:20:40;;;;;;;7.30;3.60;;;;;;;9.37;100.00;100723.22;5051780;28;20455;-58
2022/10/13 03:23:07;;;;;;;1.43;1.33;;;;;;;9.42;100.00;100721.34;5051762;28;20512;-57
2022/10/13 03:25:34;;;;;;;2.77;2.60;;;;;;;9.52;100.00;100718.56;5051860;28;20516;-58
2022/10/13 03:28:01;;;;;;;2.90;2.70;;;;;;;9.51;100.00;100720.31;5051862;28;20470;-57
2022/10/13 03:30:28;;;;;;;5.30;3.30;;;;;;;9.53;100.00;100722.94;5051445;28;20451;-58
2022/10/13 03:32:54;;;;;;;4.10;3.80;;;;;;;9.56;100.00;100726.41;5051651;28;20451;-57
2022/10/13 03:35:21;;;;;;;3.07;2.90;;;;;;;9.66;100.00;100727.13;5051447;28;21021;-58
2022/10/13 03:37:47;;;;;;;3.93;2.83;;;;;;;9.63;100.00;100730.72;5050290;28;20497;-57
2022/10/13 03:40:14;;;;;;;2.67;2.57;;;;;;;9.63;100.00;100725.41;5051328;28;21049;-58
2022/10/13 03:42:40;;;;;;;3.37;3.17;;;;;;;9.64;100.00;100727.16;5051603;28;20500;-57
2022/10/13 03:45:08;;;;;;;7.73;3.37;;;;;;;9.67;100.00;100723.59;5050458;28;20914;-58
2022/10/13 03:47:36;;;;;;;6.13;4.37;;;;;;;9.70;100.00;100726.16;5051584;28;20470;-57
2022/10/13 03:50:04;;;;;;;7.33;4.83;;;;;;;9.66;100.00;100717.41;5049749;28;20809;-57
2022/10/13 03:52:30;;;;;;;4.80;4.50;;;;;;;9.67;100.00;100723.59;5051387;28;20455;-57
2022/10/13 03:54:57;;;;;;;4.07;3.27;;;;;;;9.74;100.00;100725.25;5037120;28;20481;-57
2022/10/13 03:57:23;;;;;;;15.03;5.13;;;;;;;9.70;100.00;100718.22;5051432;28;20454;-57
2022/10/13 03:59:50;;;;;;;8.90;3.90;;;;;;;9.74;100.00;100723.47;5050848;28;20482;-57
2022/10/13 04:02:16;;;;;;;2.83;2.63;;;;;;;9.74;100.00;100720.81;5051040;28;20993;-57
2022/10/13 04:04:43;;;;;;;4.50;2.90;;;;;;;9.75;100.00;100727.88;5050905;28;20442;-58
2022/10/13 04:07:09;;;;;;;3.50;2.83;;;;;;;9.72;100.00;100722.59;5051012;28;20996;-58
2022/10/13 04:09:35;;;;;;;4.23;3.13;;;;;;;9.65;100.00;100720.97;5049455;28;20979;-58
2022/10/13 04:12:02;;;;;;;3.03;2.80;;;;;;;9.71;100.00;100728.78;5050859;28;20513;-57
2022/10/13 04:14:28;;;;;;;3.00;2.80;;;;;;;9.73;100.00;100727.03;5050651;28;20504;-58
2022/10/13 04:16:55;;;;;;;3.60;3.10;;;;;;;9.69;100.00;100725.31;5051141;28;20500;-58
2022/10/13 04:19:21;;;;;;;2.73;2.50;;;;;;;9.69;100.00;100727.94;5050485;28;20925;-57
2022/10/13 04:21:48;;;;;;;3.13;2.43;;;;;;;9.85;100.00;100730.31;5051009;28;20455;-57
2022/10/13 04:24:16;;;;;;;3.10;2.97;;;;;;;9.91;100.00;100727.56;5051941;28;20528;-58
2022/10/13 04:26:43;;;;;;;6.27;4.93;;;;;;;9.95;100.00;100723.94;5050529;28;20451;-57
2022/10/13 04:29:11;;;;;;;2.73;2.53;;;;;;;10.06;100.00;100728.16;5037219;28;20475;-57
2022/10/13 04:31:39;;;;;;;8.10;4.70;;;;;;;9.90;100.00;100726.69;5050371;28;20450;-57
2022/10/13 04:34:06;;;;;;;4.93;4.47;;;;;;;9.91;100.00;100725.78;5050643;28;20872;-57
2022/10/13 04:36:32;;;;;;;4.23;3.80;;;;;;;9.87;100.00;100716.16;5050502;28;20859;-57
2022/10/13 04:38:59;;;;;;;4.00;3.10;;;;;;;9.97;100.00;100719.47;5050454;28;20917;-57
2022/10/13 04:41:25;;;;;;;27.43;4.40;;;;;;;9.95;100.00;100702.72;5050501;28;20458;-57
2022/10/13 04:43:53;;;;;;;6.13;3.43;;;;;;;9.62;100.00;100698.91;5050182;28;20459;-57
2022/10/13 04:46:25;;;;;;;6.17;4.17;;;;;;;9.29;100.00;100676.47;5049845;28;20455;-57
2022/10/13 04:48:52;;;;;;;2.50;2.40;;;;;;;9.06;100.00;100663.63;5050263;28;20493;-57
2022/10/13 04:51:20;;;;;;;8.87;3.30;;;;;;;9.03;100.00;100651.28;5049867;28;20972;-58
2022/10/13 04:53:47;;;;;;;5.47;4.63;;;;;;;9.18;100.00;100640.44;5050240;28;20450;-57
2022/10/13 04:56:16;;;;;;;3.77;3.40;;;;;;;9.16;100.00;100647.50;5050020;28;20500;-58
2022/10/13 04:58:44;;;;;;;2.77;1.83;;;;;;;9.48;100.00;100648.75;5049658;28;20498;-57
2022/10/13 05:01:17;;;;;;;6.20;4.23;;;;;;;9.56;100.00;100660.06;5049789;28;20451;-57
2022/10/13 05:03:58;;;;;;;4.60;3.07;;;;;;;9.63;100.00;100671.47;5050278;28;20480;-57
2022/10/13 05:06:28;;;;;;;7.27;3.07;;;;;;;9.56;100.00;100664.50;5049666;28;20447;-58
2022/10/13 05:08:55;;;;;;;9.90;4.67;;;;;;;9.62;100.00;100669.72;5049663;28;20520;-57
2022/10/13 05:11:23;;;;;;;4.03;2.70;;;;;;;9.67;100.00;100679.34;5049552;28;20451;-58
2022/10/13 05:13:49;;;;;;;3.40;2.70;;;;;;;9.72;100.00;100682.75;5049396;28;20504;-57
2022/10/13 05:16:18;;;;;;;4.67;3.70;;;;;;;9.62;100.00;100691.81;5049734;28;20454;-58
2022/10/13 05:18:44;;;;;;;12.73;4.70;;;;;;;9.61;100.00;100678.59;5049366;28;20494;-57
2022/10/13 05:21:13;;;;;;;2.83;2.40;;;;;;;9.71;100.00;100683.66;5049450;28;20458;-58
2022/10/13 05:23:40;;;;;;;4.90;4.40;;;;;;;9.72;100.00;100680.09;5049284;28;20450;-58
2022/10/13 05:26:10;;;;;;;4.20;3.90;;;;;;;9.85;100.00;100678.09;5049546;28;20458;-57
2022/10/13 05:28:37;;;;;;;3.47;3.27;;;;;;;9.85;100.00;100674.56;5049413;28;20467;-57
2022/10/13 05:31:12;;;;;;;3.70;3.40;;;;;;;9.86;100.00;100676.31;5049229;28;20508;-57
2022/10/13 05:33:39;;;;;;;14.67;5.03;;;;;;;9.86;100.00;100677.19;5049193;28;20485;-57
2022/10/13 05:36:10;;;;;;;5.00;2.50;;;;;;;9.91;100.00;100679.78;5049003;28;20451;-57
2022/10/13 05:38:37;;;;;;;20.73;5.97;;;;;;;9.88;100.00;100680.72;5049575;28;20985;-57
2022/10/13 05:41:09;;;;;;;4.10;3.50;;;;;;;9.84;100.00;100681.66;5049376;28;20454;-57
2022/10/13 05:43:38;;;;;;;20.97;2.57;;;;;;;9.91;100.00;100679.78;5049218;28;20512;-57
2022/10/13 05:46:05;;;;;;;4.33;3.93;;;;;;;9.93;100.00;100677.97;5049187;28;20458;-57
2022/10/13 05:48:31;;;;;;;4.63;3.33;;;;;;;9.77;100.00;100678.25;5049109;28;20474;-57
2022/10/13 05:51:00;;;;;;;12.70;4.37;;;;;;;9.76;100.00;100676.50;5049363;28;20461;-57
2022/10/13 05:53:30;;;;;;;3.23;2.50;;;;;;;9.88;100.00;100688.69;5049021;28;20852;-57
2022/10/13 05:56:05;;;;;;;4.13;3.83;;;;;;;9.95;100.00;100697.38;5048937;28;20454;-58
2022/10/13 05:58:35;;;;;;;11.67;4.00;;;;;;;9.98;100.00;100694.66;5049162;28;20963;-57
2022/10/13 06:01:05;;;;;;;2.37;2.23;;;;;;;9.97;100.00;100693.78;5048794;28;20508;-58
2022/10/13 06:03:33;;;;;;;4.87;4.37;;;;;;;9.93;100.00;100696.56;5049337;28;20501;-56
2022/10/13 06:05:59;;;;;;;6.67;5.20;;;;;;;9.92;100.00;100678.88;5049124;28;20451;-57
2022/10/13 06:08:26;;;;;;;5.63;3.37;;;;;;;9.73;100.00;100675.69;5048811;28;20529;-56
2022/10/13 06:10:52;;;;;;;8.13;3.73;;;;;;;9.68;100.00;100674.91;5048802;28;20455;-56
2022/10/13 06:13:19;;;;;;;3.93;3.63;;;;;;;9.69;100.00;100674.88;5048773;28;20447;-56
2022/10/13 06:15:45;;;;;;;5.10;4.60;;;;;;;10.00;100.00;100675.13;5048469;28;20455;-56
2022/10/13 06:18:11;;;;;;;4.70;2.93;;;;;;;9.92;100.00;100671.78;5048329;28;20493;-56
2022/10/13 06:20:38;;;;;;;4.63;3.70;;;;;;;10.28;100.00;100674.59;5048777;28;20450;-56
2022/10/13 06:23:04;;;;;;;3.73;3.40;;;;;;;10.25;100.00;100666.69;5048941;28;20455;-56
2022/10/13 06:25:31;;;;;;;12.50;5.50;;;;;;;10.15;100.00;100665.13;5048508;28;20454;-57
2022/10/13 06:27:59;;;;;;;3.93;3.63;;;;;;;10.17;100.00;100656.22;5048544;28;20474;-56
2022/10/13 06:30:26;;;;;;;7.53;4.30;;;;;;;10.24;100.00;100660.53;5048133;28;20932;-56
2022/10/13 06:32:54;;;;;;;4.57;4.27;;;;;;;10.31;100.00;100661.28;5048545;28;20451;-56
2022/10/13 06:35:23;;;;;;;4.37;4.03;;;;;;;10.28;100.00;100663.97;5048850;28;20517;-57
2022/10/13 06:37:51;;;;;;;3.90;3.07;;;;;;;10.38;100.00;100670.84;5048281;28;20818;-56
2022/10/13 06:40:18;;;;;;;4.20;3.77;;;;;;;10.38;100.00;100678.81;5048116;28;20910;-56
2022/10/13 06:42:48;;;;;;;3.70;3.07;;;;;;;10.22;100.00;100672.09;5048379;28;20943;-57
2022/10/13 06:45:15;;;;;;;13.67;5.90;;;;;;;10.17;100.00;100668.63;5047263;28;20508;-57
2022/10/13 06:47:42;;;;;;;5.17;3.60;;;;;;;10.17;100.00;100666.84;5048391;28;20859;-56
2022/10/13 06:50:08;;;;;;;4.70;4.30;;;;;;;10.24;100.00;100673.81;5048508;28;20454;-57
2022/10/13 06:52:35;;;;;;;5.20;4.17;;;;;;;10.37;100.00;100675.28;5048423;28;20508;-57
2022/10/13 06:55:01;;;;;;;2.13;2.03;;;;;;;10.35;100.00;100678.91;5048356;28;20516;-56
2022/10/13 06:57:27;;;;;;;3.83;3.43;;;;;;;10.58;100.00;100683.72;5048717;28;20505;-56
2022/10/13 06:59:54;;;;;;;3.23;2.93;;;;;;;10.43;100.00;100686.72;5048017;28;20498;-57
2022/10/13 07:02:20;;;;;;;4.93;4.33;;;;;;;10.47;100.00;100675.09;5048456;28;20515;-56
2022/10/13 07:04:47;;;;;;;19.57;3.87;;;;;;;10.51;100.00;100669.69;5048043;28;20854;-56
2022/10/13 07:07:14;;;;;;;5.70;3.93;;;;;;;10.44;100.00;100669.88;5048283;28;20455;-56
2022/10/13 07:09:41;;;;;;;4.77;4.40;;;;;;;10.38;100.00;100670.84;5048129;28;20466;-56
2022/10/13 07:12:08;;;;;;;3.47;3.17;;;;;;;10.53;100.00;100672.28;5048615;28;20451;-56
2022/10/13 07:14:34;;;;;;;5.20;4.90;;;;;;;10.60;100.00;100665.94;5048146;28;20458;-56
2022/10/13 07:17:04;;;;;;;14.97;4.43;;;;;;;10.58;100.00;100670.44;5048317;28;20446;-56
2022/10/13 07:19:30;;;;;;;5.93;3.20;;;;;;;10.78;100.00;100676.16;5048305;28;20494;-57
2022/10/13 07:21:57;;;;;;;29.53;5.47;;;;;;;10.76;100.00;100663.81;5048158;28;20549;-56
2022/10/13 07:24:24;;;;;;;4.70;4.40;;;;;;;10.69;100.00;100665.75;5048065;28;20504;-56
2022/10/13 07:26:50;;;;;;;22.23;2.63;;;;;;;10.86;100.00;100668.00;5048175;28;20830;-57
2022/10/13 07:29:17;;;;;;;5.53;5.03;;;;;;;10.91;100.00;100666.97;5048912;28;20466;-56
2022/10/13 07:31:44;;;;;;;6.93;4.50;;;;;;;10.97;100.00;100666.84;5051842;28;20454;-57
2022/10/13 07:34:11;;;;;;;4.43;4.13;;;;;;;10.91;100.00;100661.66;5051682;28;20545;-56
2022/10/13 07:36:40;;;;;;;25.50;5.20;;;;;;;11.06;100.00;100662.19;5051507;28;20485;-57
2022/10/13 07:39:07;;;;;;;3.60;3.40;;;;;;;11.11;100.00;100660.31;5051292;28;20569;-56
2022/10/13 07:41:35;;;;;;;4.47;3.27;;;;;;;11.09;100.00;100670.09;5051712;28;20453;-56
2022/10/13 07:44:01;;;;;;;8.87;5.93;;;;;;;11.43;100.00;100664.81;5050100;28;20454;-57
2022/10/13 07:46:28;;;;;;;6.10;4.17;;;;;;;11.31;100.00;100671.31;5051271;28;20508;-56
2022/10/13 07:48:55;;;;;;;18.03;5.27;;;;;;;11.11;100.00;100665.63;5051438;28;20466;-56
2022/10/13 07:51:22;;;;;;;6.93;4.53;;;;;;;11.19;100.00;100660.97;5051060;28;20963;-57
2022/10/13 07:53:48;;;;;;;6.60;3.23;;;;;;;11.11;100.00;100666.50;5051610;28;20455;-56
2022/10/13 07:56:15;;;;;;;3.00;2.63;;;;;;;11.22;100.00;100663.56;5051305;28;20960;-57
2022/10/13 07:58:45;;;;;;;8.37;4.37;;;;;;;11.12;100.00;100654.94;5051366;28;20470;-57
2022/10/13 08:01:12;;;;;;;3.70;3.10;;;;;;;11.13;100.00;100645.19;5051173;28;20450;-57
2022/10/13 08:03:40;;;;;;;15.17;5.50;;;;;;;11.14;100.00;100641.59;5051293;28;20550;-56
2022/10/13 08:06:13;;;;;;;3.87;3.57;;;;;;;11.14;100.00;100637.16;5050936;28;20451;-57
2022/10/13 08:08:39;;;;;;;4.40;4.10;;;;;;;11.16;100.00;100627.34;5050534;22;20510;-58
2022/10/13 08:11:09;;;;;;;15.47;4.90;;;;;;;11.28;100.00;100632.34;5031119;28;20517;-59
2022/10/13 08:13:41;;;;;;;4.80;4.33;;;;;;;11.52;100.00;100640.63;5041630;28;20534;-58
2022/10/13 08:16:08;;;;;;;4.30;3.87;;;;;;;11.80;100.00;100654.09;5030896;28;21011;-58
2022/10/13 08:18:35;;;;;;;5.90;4.83;;;;;;;11.63;100.00;100658.94;5033887;28;20533;-58
2022/10/13 08:21:02;;;;;;;3.90;3.60;;;;;;;11.48;100.00;100657.56;5050584;28;20458;-59
2022/10/13 08:23:49;;;;;;;4.50;4.20;;;;;;;11.44;100.00;100662.09;5037427;28;20587;-58
2022/10/13 08:26:22;;;;;;;8.60;5.27;;;;;;;11.85;100.00;100663.69;5041105;28;20800;-58
2022/10/13 08:28:48;;;;;;;4.23;3.80;;;;;;;11.56;100.00;100667.09;5043854;28;20521;-58
2022/10/13 08:31:35;;;;;;;4.00;2.63;;;;;;;11.46;100.00;100662.94;5044237;28;20501;-58
2022/10/13 08:34:02;;;;;;;5.83;5.33;;;;;;;11.37;100.00;100663.16;5037518;28;20473;-58
2022/10/13 08:36:28;;;;;;;5.03;4.70;;;;;;;11.35;100.00;100656.13;5037300;28;20463;-58
2022/10/13 08:38:54;;;;;;;5.47;4.97;;;;;;;11.42;100.00;100661.28;5043867;28;20495;-58
2022/10/13 08:41:27;;;;;;;7.33;4.87;;;;;;;11.45;100.00;100655.00;5043836;28;20454;-58
2022/10/13 08:44:03;;;;;;;3.10;2.90;;;;;;;11.59;100.00;100652.84;5038729;28;20494;-58
2022/10/13 08:47:01;;;;;;;37.50;6.57;;;;;;;11.52;100.00;100653.94;5037054;28;20538;-58
2022/10/13 08:49:29;;;;;;;9.80;4.57;;;;;;;11.61;100.00;100663.44;5037241;28;20497;-58
2022/10/13 08:51:57;;;;;;;9.20;4.77;;;;;;;11.86;100.00;100661.91;5042858;28;20529;-58
2022/10/13 08:54:25;;;;;;;6.80;6.20;;;;;;;11.88;100.00;100657.38;5043512;28;20958;-57
2022/10/13 08:56:51;;;;;;;5.70;3.80;;;;;;;12.06;100.00;100663.97;5038655;28;20450;-58
2022/10/13 08:59:20;;;;;;;4.70;4.40;;;;;;;12.12;100.00;100671.81;5036993;28;20491;-58
2022/10/13 09:01:51;;;;;;;4.73;4.27;;;;;;;12.08;100.00;100665.72;5041392;28;20456;-58
2022/10/13 09:04:32;;;;;;;17.53;5.17;;;;;;;11.79;100.00;100665.66;5043603;28;20502;-58
2022/10/13 09:07:13;;;;;;;3.93;3.53;;;;;;;12.16;100.00;100662.81;5041643;28;20474;-58
2022/10/13 09:09:39;;;;;;;8.40;3.87;;;;;;;12.19;100.00;100659.16;5036990;28;20447;-58
2022/10/13 09:12:08;;;;;;;4.60;4.30;;;;;;;11.81;100.00;100663.81;5040141;28;20508;-58
2022/10/13 09:14:37;;;;;;;4.13;3.83;;;;;;;11.63;100.00;100666.94;5048079;28;20452;-59
2022/10/13 09:17:22;;;;;;;4.93;4.03;;;;;;;11.92;100.00;100674.16;5042687;28;20475;-58
2022/10/13 09:20:26;;;;;;;4.73;4.33;;;;;;;12.06;100.00;100667.56;5039162;28;21049;-59
2022/10/13 09:23:03;;;;;;;5.23;4.77;;;;;;;12.00;100.00;100672.16;5041866;28;20459;-58
2022/10/13 09:25:39;;;;;;;4.10;3.80;;;;;;;12.49;100.00;100682.28;5042811;28;20455;-58
2022/10/13 09:28:29;;;;;;;9.37;4.70;;;;;;;12.12;100.00;100672.69;5040353;28;20520;-58
2022/10/13 09:31:26;;;;;;;3.73;3.43;;;;;;;12.07;100.00;100660.44;5036730;28;20447;-58
2022/10/13 09:33:58;;;;;;;6.13;4.43;;;;;;;11.85;100.00;100660.16;5035806;28;20454;-58
2022/10/13 09:36:25;;;;;;;8.30;6.03;;;;;;;11.89;100.00;100667.13;5037348;28;20541;-58
2022/10/13 09:39:06;;;;;;;6.13;5.53;;;;;;;11.84;100.00;100653.94;5042262;28;20480;-58
2022/10/13 09:41:34;;;;;;;8.00;3.70;;;;;;;11.86;100.00;100644.13;5042949;28;20533;-58
2022/10/13 09:44:11;;;;;;;9.50;4.50;;;;;;;11.80;100.00;100641.66;5038323;28;20955;-58
2022/10/13 09:46:54;;;;;;;3.13;2.90;;;;;;;11.75;100.00;100637.31;5034603;28;20709;-58
2022/10/13 09:49:31;;;;;;;5.27;4.73;;;;;;;11.74;100.00;100622.25;5037266;28;20869;-58
2022/10/13 09:52:01;;;;;;;9.40;4.67;;;;;;;11.97;100.00;100626.97;5035467;28;20455;-58
2022/10/13 09:54:48;;;;;;;4.37;3.97;;;;;;;12.01;100.00;100634.81;5035582;28;20451;-58
2022/10/13 09:57:39;;;;;;;3.50;3.30;;;;;;;11.83;100.00;100612.25;5038567;28;20471;-58
2022/10/13 10:00:15;;;;;;;5.50;3.00;;;;;;;12.05;100.00;100617.81;5036273;28;20969;-58
2022/10/13 10:03:08;;;;;;;4.37;3.57;;;;;;;12.33;100.00;100627.66;5035965;28;20466;-58
2022/10/13 10:05:41;;;;;;;5.83;4.53;;;;;;;12.27;100.00;100618.06;5036571;28;20452;-58
2022/10/13 10:08:49;;;;;;;11.73;5.33;;;;;;;12.57;100.00;100626.03;5042265;28;20569;-59
2022/10/13 10:11:48;;;;;;;13.03;6.97;;;;;;;12.69;100.00;100613.19;5036798;28;20454;-58
2022/10/13 10:14:24;;;;;;;16.40;6.20;;;;;;;12.82;100.00;100611.00;5045849;28;20450;-59
2022/10/13 10:17:29;;;;;;;20.00;5.97;;;;;;;13.12;100.00;100614.44;5037163;28;20454;-59
2022/10/13 10:20:12;;;;;;;7.83;6.70;;;;;;;13.39;100.00;100606.44;5038093;28;20525;-58
2022/10/13 10:23:04;;;;;;;17.83;7.83;;;;;;;13.69;100.00;100608.00;5035546;28;20497;-59
2022/10/13 10:25:48;;;;;;;6.03;5.53;;;;;;;13.97;100.00;100612.34;5035294;28;20513;-59
2022/10/13 10:28:23;;;;;;;6.53;5.40;;;;;;;14.31;100.00;100609.25;5036954;28;20476;-58
2022/10/13 10:31:33;;;;;;;8.43;6.17;;;;;;;14.49;100.00;100598.75;5034376;28;20549;-58
2022/10/13 10:34:25;;;;;;;10.20;7.70;;;;;;;14.16;100.00;100600.03;5021083;28;20934;-58
2022/10/13 10:37:05;;;;;;;9.77;7.00;;;;;;;14.30;100.00;100611.06;5035541;28;20450;-59
2022/10/13 10:39:51;;;;;;;11.73;7.00;;;;;;;14.28;100.00;100607.59;5037198;28;20495;-58
2022/10/13 10:42:58;;;;;;;8.83;6.13;;;;;;;14.18;100.00;100603.50;5036220;28;20470;-59
2022/10/13 10:45:29;;;;;;;34.53;7.30;;;;;;;14.30;100.00;100600.38;5035496;28;20447;-59
2022/10/13 10:48:03;;;;;;;14.13;6.40;;;;;;;14.64;100.00;100589.22;5035867;28;20983;-59
2022/10/13 10:50:32;;;;;;;11.73;6.37;;;;;;;14.31;100.00;100580.72;5040129;28;20421;-59
2022/10/13 10:53:08;;;;;;;9.63;6.57;;;;;;;14.15;100.00;100569.75;5041734;28;20868;-58
2022/10/13 10:55:37;;;;;;;7.73;6.90;;;;;;;14.12;100.00;100574.38;5039493;28;20519;-59
2022/10/13 10:58:21;;;;;;;6.93;6.13;;;;;;;14.13;100.00;100554.72;5034978;28;20987;-59
2022/10/13 11:00:58;;;;;;;8.13;6.30;;;;;;;14.23;100.00;100556.94;5033765;28;20621;-58
2022/10/13 11:03:28;;;;;;;16.77;5.70;;;;;;;14.41;100.00;100554.50;5039632;28;20429;-59
2022/10/13 11:06:03;;;;;;;7.63;6.90;;;;;;;14.67;100.00;100558.81;5045382;28;20457;-58
2022/10/13 11:08:40;;;;;;;21.73;7.67;;;;;;;14.39;100.00;100556.34;5042900;28;20998;-58
2022/10/13 11:11:19;;;;;;;7.37;6.70;;;;;;;14.46;100.00;100545.38;5038908;28;20462;-58
2022/10/13 11:13:58;;;;;;;13.33;6.87;;;;;;;14.89;100.00;100540.06;5058110;28;20469;-58
2022/10/13 11:16:37;;;;;;;20.90;8.07;;;;;;;14.96;100.00;100547.78;5044259;28;20451;-58
2022/10/13 11:19:24;;;;;;;12.20;7.53;;;;;;;14.85;100.00;100543.78;5047276;28;20947;-58
2022/10/13 11:21:53;;;;;;;16.43;9.60;;;;;;;15.10;100.00;100547.19;5039533;28;20455;-59
2022/10/13 11:24:32;;;;;;;12.30;5.93;;;;;;;15.19;100.00;100548.56;5045377;28;20887;-58
2022/10/13 11:27:09;;;;;;;9.27;6.50;;;;;;;15.35;100.00;100539.81;5045296;28;20982;-59
2022/10/13 11:29:48;;;;;;;7.93;4.80;;;;;;;15.27;100.00;100543.75;5040616;28;20450;-59
2022/10/13 11:32:26;;;;;;;6.27;5.73;;;;;;;15.46;100.00;100549.16;5038473;28;20460;-59
2022/10/13 11:34:57;;;;;;;12.83;8.30;;;;;;;15.69;100.00;100549.03;5038429;28;20808;-59
2022/10/13 11:37:31;;;;;;;14.33;7.77;;;;;;;15.44;100.00;100545.69;5044521;28;20471;-59
2022/10/13 11:40:10;;;;;;;8.87;5.40;;;;;;;15.52;100.00;100546.22;5045092;28;20494;-59